sensor_id;sensor_type;location;lat;lon;timestamp;pressure;altitude;pressure_sealevel;temperature;humidity
76605;BME280;73179;50.978;16.998;2023-12-20T00:01:25;99459.59;;;4.77;83.52
76605;BME280;73179;50.978;16.998;2023-12-20T00:03:51;99679.47;;;6.06;84.03
76605;BME280;73179;50.978;16.998;2023-12-20T00:06:18;99556.59;;;5.31;83.98
76605;BME280;73179;50.978;16.998;2023-12-20T00:08:47;99557.94;;;5.39;83.96
76605;BME280;73179;50.978;16.998;2023-12-20T00:11:14;99502.59;;;5.07;83.87
76605;BME280;73179;50.978;16.998;2023-12-20T00:13:39;99556.34;;;5.38;84.33
76605;BME280;73179;50.978;16.998;2023-12-20T00:16:06;99509.59;;;5.13;83.76
76605;BME280;73179;50.978;16.998;2023-12-20T00:18:34;99579.16;;;5.45;83.90
76605;BME280;73179;50.978;16.998;2023-12-20T00:21:00;99596.91;;;5.61;84.23
76605;BME280;73179;50.978;16.998;2023-12-20T00:23:26;99566.25;;;5.32;83.81
76605;BME280;73179;50.978;16.998;2023-12-20T00:25:53;99596.13;;;5.56;84.05
76605;BME280;73179;50.978;16.998;2023-12-20T00:28:22;99423.59;;;4.53;83.84
76605;BME280;73179;50.978;16.998;2023-12-20T00:30:48;99531.03;;;5.08;83.82
76605;BME280;73179;50.978;16.998;2023-12-20T00:33:14;99563.06;;;5.40;84.20
76605;BME280;73179;50.978;16.998;2023-12-20T00:35:41;99588.00;;;5.41;84.46
76605;BME280;73179;50.978;16.998;2023-12-20T00:38:08;99603.88;;;5.47;84.67
76605;BME280;73179;50.978;16.998;2023-12-20T00:40:36;99582.13;;;5.44;84.78
76605;BME280;73179;50.978;16.998;2023-12-20T00:43:02;99525.41;;;5.10;85.17
76605;BME280;73179;50.978;16.998;2023-12-20T00:45:32;99573.50;;;5.42;84.57
76605;BME280;73179;50.978;16.998;2023-12-20T00:47:58;99518.16;;;5.05;84.66
76605;BME280;73179;50.978;16.998;2023-12-20T00:50:25;99424.41;;;4.53;84.72
76605;BME280;73179;50.978;16.998;2023-12-20T00:52:51;99540.97;;;5.13;84.49
76605;BME280;73179;50.978;16.998;2023-12-20T00:55:17;99548.81;;;5.24;85.56
76605;BME280;73179;50.978;16.998;2023-12-20T00:57:43;99475.69;;;4.77;85.26
76605;BME280;73179;50.978;16.998;2023-12-20T01:00:10;99537.25;;;5.24;85.15
76605;BME280;73179;50.978;16.998;2023-12-20T01:02:39;99502.78;;;4.80;85.25
76605;BME280;73179;50.978;16.998;2023-12-20T01:05:06;99518.41;;;4.94;84.96
76605;BME280;73179;50.978;16.998;2023-12-20T01:07:35;99556.84;;;5.29;85.44
76605;BME280;73179;50.978;16.998;2023-12-20T01:10:03;99574.88;;;5.39;85.75
76605;BME280;73179;50.978;16.998;2023-12-20T01:12:32;99581.31;;;5.43;86.26
76605;BME280;73179;50.978;16.998;2023-12-20T01:15:01;99464.13;;;4.71;85.76
76605;BME280;73179;50.978;16.998;2023-12-20T01:17:28;99499.34;;;4.95;86.21
76605;BME280;73179;50.978;16.998;2023-12-20T01:19:54;99643.16;;;5.79;86.81
76605;BME280;73179;50.978;16.998;2023-12-20T01:22:23;99491.81;;;4.87;86.49
76605;BME280;73179;50.978;16.998;2023-12-20T01:24:52;99405.06;;;4.36;86.82
76605;BME280;73179;50.978;16.998;2023-12-20T01:27:18;99401.28;;;4.27;86.59
76605;BME280;73179;50.978;16.998;2023-12-20T01:29:47;99641.25;;;5.74;87.30
76605;BME280;73179;50.978;16.998;2023-12-20T01:32:13;99409.06;;;4.28;87.21
76605;BME280;73179;50.978;16.998;2023-12-20T01:34:40;99584.25;;;5.42;87.88
76605;BME280;73179;50.978;16.998;2023-12-20T01:37:06;99447.19;;;4.56;87.14
76605;BME280;73179;50.978;16.998;2023-12-20T01:39:33;99449.09;;;4.55;87.30
76605;BME280;73179;50.978;16.998;2023-12-20T01:41:59;99444.56;;;4.66;87.22
76605;BME280;73179;50.978;16.998;2023-12-20T01:44:28;99403.69;;;4.28;87.79
76605;BME280;73179;50.978;16.998;2023-12-20T01:46:54;99519.75;;;5.06;88.09
76605;BME280;73179;50.978;16.998;2023-12-20T01:49:27;99461.16;;;4.68;88.13
76605;BME280;73179;50.978;16.998;2023-12-20T01:51:56;99406.34;;;4.23;88.37
76605;BME280;73179;50.978;16.998;2023-12-20T01:54:24;99520.81;;;5.00;88.85
76605;BME280;73179;50.978;16.998;2023-12-20T01:56:53;99555.50;;;5.27;88.37
76605;BME280;73179;50.978;16.998;2023-12-20T01:59:23;99493.94;;;4.80;89.03
76605;BME280;73179;50.978;16.998;2023-12-20T02:01:49;99521.38;;;5.07;88.70
76605;BME280;73179;50.978;16.998;2023-12-20T02:04:16;99381.69;;;4.16;88.73
76605;BME280;73179;50.978;16.998;2023-12-20T02:06:45;99463.09;;;4.77;88.94
76605;BME280;73179;50.978;16.998;2023-12-20T02:09:16;99380.06;;;4.15;88.44
76605;BME280;73179;50.978;16.998;2023-12-20T02:11:43;99402.59;;;4.29;88.72
76605;BME280;73179;50.978;16.998;2023-12-20T02:14:12;99399.38;;;4.22;89.37
76605;BME280;73179;50.978;16.998;2023-12-20T02:16:41;99379.50;;;4.13;88.75
76605;BME280;73179;50.978;16.998;2023-12-20T02:19:13;99473.53;;;4.79;89.13
76605;BME280;73179;50.978;16.998;2023-12-20T02:21:42;99436.19;;;4.52;88.90
76605;BME280;73179;50.978;16.998;2023-12-20T02:24:08;99486.72;;;4.91;89.13
76605;BME280;73179;50.978;16.998;2023-12-20T02:26:34;99405.28;;;4.29;88.77
76605;BME280;73179;50.978;16.998;2023-12-20T02:29:02;99569.22;;;5.46;89.23
76605;BME280;73179;50.978;16.998;2023-12-20T02:31:28;99448.84;;;4.62;88.92
76605;BME280;73179;50.978;16.998;2023-12-20T02:33:55;99393.81;;;4.44;89.13
76605;BME280;73179;50.978;16.998;2023-12-20T02:36:21;99370.41;;;4.14;88.94
76605;BME280;73179;50.978;16.998;2023-12-20T02:38:48;99357.50;;;4.06;88.34
76605;BME280;73179;50.978;16.998;2023-12-20T02:41:18;99469.00;;;4.79;89.06
76605;BME280;73179;50.978;16.998;2023-12-20T02:43:50;99342.00;;;4.08;88.86
76605;BME280;73179;50.978;16.998;2023-12-20T02:46:23;99492.34;;;4.84;89.09
76605;BME280;73179;50.978;16.998;2023-12-20T02:48:52;99463.06;;;4.72;89.74
76605;BME280;73179;50.978;16.998;2023-12-20T02:51:20;99446.19;;;4.67;89.25
76605;BME280;73179;50.978;16.998;2023-12-20T02:53:52;99435.44;;;4.62;89.28
76605;BME280;73179;50.978;16.998;2023-12-20T02:56:21;99328.31;;;4.00;88.80
76605;BME280;73179;50.978;16.998;2023-12-20T02:58:47;99468.75;;;4.91;89.12
76605;BME280;73179;50.978;16.998;2023-12-20T03:01:19;99400.50;;;4.37;89.38
76605;BME280;73179;50.978;16.998;2023-12-20T03:03:46;99423.06;;;4.56;89.48
76605;BME280;73179;50.978;16.998;2023-12-20T03:06:18;99317.81;;;3.88;89.39
76605;BME280;73179;50.978;16.998;2023-12-20T03:08:45;99426.84;;;4.60;89.33
76605;BME280;73179;50.978;16.998;2023-12-20T03:11:11;99317.25;;;3.81;89.59
76605;BME280;73179;50.978;16.998;2023-12-20T03:13:38;99390.00;;;4.25;89.83
76605;BME280;73179;50.978;16.998;2023-12-20T03:16:13;99509.28;;;5.00;89.86
76605;BME280;73179;50.978;16.998;2023-12-20T03:18:41;99457.91;;;4.56;89.86
76605;BME280;73179;50.978;16.998;2023-12-20T03:21:07;99419.28;;;4.42;89.15
76605;BME280;73179;50.978;16.998;2023-12-20T03:23:33;99443.44;;;4.57;89.41
76605;BME280;73179;50.978;16.998;2023-12-20T03:25:59;99458.44;;;4.53;89.46
76605;BME280;73179;50.978;16.998;2023-12-20T03:28:29;99511.97;;;5.00;89.31
76605;BME280;73179;50.978;16.998;2023-12-20T03:30:55;99334.94;;;3.82;90.08
76605;BME280;73179;50.978;16.998;2023-12-20T03:33:25;99427.03;;;4.38;89.41
76605;BME280;73179;50.978;16.998;2023-12-20T03:35:51;99359.34;;;3.96;89.81
76605;BME280;73179;50.978;16.998;2023-12-20T03:38:18;99522.41;;;4.96;89.92
76605;BME280;73179;50.978;16.998;2023-12-20T03:40:47;99559.19;;;5.11;89.50
76605;BME280;73179;50.978;16.998;2023-12-20T03:43:13;99503.31;;;4.77;89.88
76605;BME280;73179;50.978;16.998;2023-12-20T03:45:39;99353.69;;;3.87;89.76
76605;BME280;73179;50.978;16.998;2023-12-20T03:48:06;99348.84;;;3.84;89.55
76605;BME280;73179;50.978;16.998;2023-12-20T03:50:32;99461.16;;;4.58;89.60
76605;BME280;73179;50.978;16.998;2023-12-20T03:52:59;99424.81;;;4.25;89.71
76605;BME280;73179;50.978;16.998;2023-12-20T03:55:26;99465.94;;;4.51;89.91
76605;BME280;73179;50.978;16.998;2023-12-20T03:57:56;99531.00;;;4.93;90.22
76605;BME280;73179;50.978;16.998;2023-12-20T04:00:24;99422.72;;;4.32;90.22
76605;BME280;73179;50.978;16.998;2023-12-20T04:02:54;99354.19;;;3.84;90.03
76605;BME280;73179;50.978;16.998;2023-12-20T04:05:20;99560.28;;;5.15;90.34
76605;BME280;73179;50.978;16.998;2023-12-20T04:07:46;99506.28;;;4.81;90.31
76605;BME280;73179;50.978;16.998;2023-12-20T04:10:12;99435.59;;;4.35;90.16
76605;BME280;73179;50.978;16.998;2023-12-20T04:12:39;99436.13;;;4.37;90.51
76605;BME280;73179;50.978;16.998;2023-12-20T04:15:07;99376.44;;;3.84;90.61
76605;BME280;73179;50.978;16.998;2023-12-20T04:17:36;99521.56;;;4.86;91.03
76605;BME280;73179;50.978;16.998;2023-12-20T04:20:02;99360.31;;;3.74;90.49
76605;BME280;73179;50.978;16.998;2023-12-20T04:22:29;99412.19;;;4.15;90.28
76605;BME280;73179;50.978;16.998;2023-12-20T04:24:55;99356.84;;;3.79;90.36
76605;BME280;73179;50.978;16.998;2023-12-20T04:27:21;99545.50;;;4.97;90.50
76605;BME280;73179;50.978;16.998;2023-12-20T04:29:47;99364.38;;;3.82;90.27
76605;BME280;73179;50.978;16.998;2023-12-20T04:32:14;99420.78;;;4.22;90.98
76605;BME280;73179;50.978;16.998;2023-12-20T04:34:40;99489.84;;;4.62;90.77
76605;BME280;73179;50.978;16.998;2023-12-20T04:37:12;99398.69;;;3.95;90.53
76605;BME280;73179;50.978;16.998;2023-12-20T04:39:39;99348.72;;;3.59;90.52
76605;BME280;73179;50.978;16.998;2023-12-20T04:42:09;99386.28;;;3.79;90.07
76605;BME280;73179;50.978;16.998;2023-12-20T04:44:35;99332.59;;;3.49;90.29
76605;BME280;73179;50.978;16.998;2023-12-20T04:47:04;99514.75;;;4.58;90.48
76605;BME280;73179;50.978;16.998;2023-12-20T04:49:33;99385.22;;;3.80;90.32
76605;BME280;73179;50.978;16.998;2023-12-20T04:52:00;99502.69;;;4.55;90.69
76605;BME280;73179;50.978;16.998;2023-12-20T04:54:26;99541.84;;;4.61;90.42
76605;BME280;73179;50.978;16.998;2023-12-20T04:56:52;99422.56;;;4.02;90.12
76605;BME280;73179;50.978;16.998;2023-12-20T04:59:18;99346.81;;;3.54;90.76
76605;BME280;73179;50.978;16.998;2023-12-20T05:01:48;99323.94;;;3.36;90.23
76605;BME280;73179;50.978;16.998;2023-12-20T05:04:14;99558.03;;;4.82;91.00
76605;BME280;73179;50.978;16.998;2023-12-20T05:06:40;99330.69;;;3.44;90.62
76605;BME280;73179;50.978;16.998;2023-12-20T05:09:07;99325.53;;;3.32;90.86
76605;BME280;73179;50.978;16.998;2023-12-20T05:11:33;99480.84;;;4.31;90.83
76605;BME280;73179;50.978;16.998;2023-12-20T05:14:00;99466.38;;;4.27;90.50
76605;BME280;73179;50.978;16.998;2023-12-20T05:16:26;99522.22;;;4.51;91.38
76605;BME280;73179;50.978;16.998;2023-12-20T05:18:52;99390.53;;;3.70;92.22
76605;BME280;73179;50.978;16.998;2023-12-20T05:21:22;99449.38;;;4.07;92.21
76605;BME280;73179;50.978;16.998;2023-12-20T05:23:48;99336.75;;;3.29;92.59
76605;BME280;73179;50.978;16.998;2023-12-20T05:26:19;99338.59;;;3.29;92.40
76605;BME280;73179;50.978;16.998;2023-12-20T05:28:55;99477.53;;;4.14;92.46
76605;BME280;73179;50.978;16.998;2023-12-20T05:31:24;99475.09;;;4.08;92.90
76605;BME280;73179;50.978;16.998;2023-12-20T05:33:54;99341.84;;;3.31;92.90
76605;BME280;73179;50.978;16.998;2023-12-20T05:36:21;99321.97;;;3.22;92.83
76605;BME280;73179;50.978;16.998;2023-12-20T05:38:50;99384.22;;;3.49;93.20
76605;BME280;73179;50.978;16.998;2023-12-20T05:41:23;99436.34;;;3.78;93.35
76605;BME280;73179;50.978;16.998;2023-12-20T05:44:03;99337.50;;;3.20;93.35
76605;BME280;73179;50.978;16.998;2023-12-20T05:46:30;99377.53;;;3.52;93.20
76605;BME280;73179;50.978;16.998;2023-12-20T05:48:56;99381.22;;;3.41;93.54
76605;BME280;73179;50.978;16.998;2023-12-20T05:51:25;99396.56;;;3.50;93.37
76605;BME280;73179;50.978;16.998;2023-12-20T05:53:56;99347.66;;;3.23;92.79
76605;BME280;73179;50.978;16.998;2023-12-20T05:56:26;99340.22;;;3.30;92.13
76605;BME280;73179;50.978;16.998;2023-12-20T05:58:53;99374.88;;;3.52;92.00
76605;BME280;73179;50.978;16.998;2023-12-20T06:01:23;99301.06;;;3.09;91.42
76605;BME280;73179;50.978;16.998;2023-12-20T06:03:54;99558.25;;;4.75;92.21
76605;BME280;73179;50.978;16.998;2023-12-20T06:06:21;99397.19;;;3.62;91.71
76605;BME280;73179;50.978;16.998;2023-12-20T06:08:47;99410.91;;;3.76;91.33
76605;BME280;73179;50.978;16.998;2023-12-20T06:11:15;99471.41;;;4.19;91.30
76605;BME280;73179;50.978;16.998;2023-12-20T06:13:41;99444.28;;;4.05;91.18
76605;BME280;73179;50.978;16.998;2023-12-20T06:16:08;99524.63;;;4.47;92.15
76605;BME280;73179;50.978;16.998;2023-12-20T06:18:34;99380.03;;;3.58;92.30
76605;BME280;73179;50.978;16.998;2023-12-20T06:21:00;99557.44;;;4.69;92.20
76605;BME280;73179;50.978;16.998;2023-12-20T06:23:29;99372.19;;;3.52;91.81
76605;BME280;73179;50.978;16.998;2023-12-20T06:25:56;99324.13;;;3.20;91.63
76605;BME280;73179;50.978;16.998;2023-12-20T06:28:22;99406.34;;;3.76;91.38
76605;BME280;73179;50.978;16.998;2023-12-20T06:30:49;99568.41;;;4.68;90.87
76605;BME280;73179;50.978;16.998;2023-12-20T06:33:15;99422.47;;;3.87;91.24
76605;BME280;73179;50.978;16.998;2023-12-20T06:35:46;99441.47;;;3.85;91.96
76605;BME280;73179;50.978;16.998;2023-12-20T06:38:14;99443.16;;;3.96;91.23
76605;BME280;73179;50.978;16.998;2023-12-20T06:40:44;99392.06;;;3.61;91.54
76605;BME280;73179;50.978;16.998;2023-12-20T06:43:13;99372.38;;;3.40;91.23
76605;BME280;73179;50.978;16.998;2023-12-20T06:45:40;99446.84;;;3.85;91.22
76605;BME280;73179;50.978;16.998;2023-12-20T06:48:07;99475.84;;;4.03;91.14
76605;BME280;73179;50.978;16.998;2023-12-20T06:50:33;99422.13;;;3.73;90.93
76605;BME280;73179;50.978;16.998;2023-12-20T06:53:00;99306.81;;;2.96;91.43
76605;BME280;73179;50.978;16.998;2023-12-20T06:55:36;99423.13;;;3.67;90.54
76605;BME280;73179;50.978;16.998;2023-12-20T06:58:03;99503.75;;;4.07;90.28
76605;BME280;73179;50.978;16.998;2023-12-20T07:00:31;99499.53;;;4.16;90.53
76605;BME280;73179;50.978;16.998;2023-12-20T07:02:58;99319.16;;;3.02;90.17
76605;BME280;73179;50.978;16.998;2023-12-20T07:05:24;99419.94;;;3.65;90.75
76605;BME280;73179;50.978;16.998;2023-12-20T07:07:50;99393.25;;;3.38;90.60
76605;BME280;73179;50.978;16.998;2023-12-20T07:10:19;99415.50;;;3.44;89.97
76605;BME280;73179;50.978;16.998;2023-12-20T07:12:45;99563.91;;;4.31;90.01
76605;BME280;73179;50.978;16.998;2023-12-20T07:15:12;99573.94;;;4.51;90.24
76605;BME280;73179;50.978;16.998;2023-12-20T07:17:38;99448.84;;;3.68;90.18
76605;BME280;73179;50.978;16.998;2023-12-20T07:20:07;99593.75;;;4.50;90.02
76605;BME280;73179;50.978;16.998;2023-12-20T07:22:36;99553.09;;;4.21;90.42
76605;BME280;73179;50.978;16.998;2023-12-20T07:25:07;99481.06;;;3.78;89.94
76605;BME280;73179;50.978;16.998;2023-12-20T07:27:40;99539.19;;;4.19;90.40
76605;BME280;73179;50.978;16.998;2023-12-20T07:30:07;99542.63;;;4.15;90.05
76605;BME280;73179;50.978;16.998;2023-12-20T07:32:37;99464.91;;;3.68;90.38
76605;BME280;73179;50.978;16.998;2023-12-20T07:35:07;99343.09;;;2.86;90.90
76605;BME280;73179;50.978;16.998;2023-12-20T07:55:09;99580.63;;;4.49;90.47
76605;BME280;73179;50.978;16.998;2023-12-20T07:57:35;99565.78;;;4.31;90.96
76605;BME280;73179;50.978;16.998;2023-12-20T08:00:01;99560.66;;;4.29;90.70
76605;BME280;73179;50.978;16.998;2023-12-20T08:02:29;99535.88;;;4.07;90.61
76605;BME280;73179;50.978;16.998;2023-12-20T08:04:55;99492.88;;;3.87;90.31
76605;BME280;73179;50.978;16.998;2023-12-20T08:07:21;99590.03;;;4.51;90.63
76605;BME280;73179;50.978;16.998;2023-12-20T08:09:47;99574.44;;;4.43;90.31
76605;BME280;73179;50.978;16.998;2023-12-20T08:12:13;99517.91;;;4.03;90.25
76605;BME280;73179;50.978;16.998;2023-12-20T08:14:39;99556.63;;;4.27;90.60
76605;BME280;73179;50.978;16.998;2023-12-20T08:17:05;99574.63;;;4.37;90.65
76605;BME280;73179;50.978;16.998;2023-12-20T08:19:32;99593.25;;;4.53;90.25
76605;BME280;73179;50.978;16.998;2023-12-20T08:21:58;99597.53;;;4.54;90.77
76605;BME280;73179;50.978;16.998;2023-12-20T08:24:24;99566.53;;;4.26;90.07
76605;BME280;73179;50.978;16.998;2023-12-20T08:39:36;99579.75;;;4.38;90.25
76605;BME280;73179;50.978;16.998;2023-12-20T08:42:03;99578.66;;;4.34;90.71
76605;BME280;73179;50.978;16.998;2023-12-20T08:44:29;99589.75;;;4.48;90.19
76605;BME280;73179;50.978;16.998;2023-12-20T08:46:55;99603.44;;;4.51;90.48
76605;BME280;73179;50.978;16.998;2023-12-20T08:49:24;99617.41;;;4.58;90.42
76605;BME280;73179;50.978;16.998;2023-12-20T08:51:51;99590.22;;;4.45;90.56
76605;BME280;73179;50.978;16.998;2023-12-20T08:54:17;99619.56;;;4.61;89.97
76605;BME280;73179;50.978;16.998;2023-12-20T08:56:45;99625.75;;;4.62;90.28
76605;BME280;73179;50.978;16.998;2023-12-20T08:59:11;99606.94;;;4.57;90.25
76605;BME280;73179;50.978;16.998;2023-12-20T09:01:38;99604.50;;;4.50;89.78
76605;BME280;73179;50.978;16.998;2023-12-20T09:04:04;99599.94;;;4.51;90.01
76605;BME280;73179;50.978;16.998;2023-12-20T09:06:32;99584.06;;;4.44;90.04
76605;BME280;73179;50.978;16.998;2023-12-20T09:08:58;99621.47;;;4.66;88.95
76605;BME280;73179;50.978;16.998;2023-12-20T09:11:24;99625.22;;;4.65;89.61
76605;BME280;73179;50.978;16.998;2023-12-20T09:13:50;99629.50;;;4.66;90.03
76605;BME280;73179;50.978;16.998;2023-12-20T09:16:16;99583.28;;;4.44;89.13
76605;BME280;73179;50.978;16.998;2023-12-20T09:18:42;99599.41;;;4.54;89.41
76605;BME280;73179;50.978;16.998;2023-12-20T09:21:08;99602.63;;;4.51;88.89
76605;BME280;73179;50.978;16.998;2023-12-20T09:23:34;99614.97;;;4.57;88.90
76605;BME280;73179;50.978;16.998;2023-12-20T09:26:02;99607.16;;;4.50;88.08
76605;BME280;73179;50.978;16.998;2023-12-20T09:28:28;99611.75;;;4.55;88.51
76605;BME280;73179;50.978;16.998;2023-12-20T09:30:54;99630.63;;;4.70;88.16
76605;BME280;73179;50.978;16.998;2023-12-20T09:33:20;99610.38;;;4.52;87.64
76605;BME280;73179;50.978;16.998;2023-12-20T09:35:46;99613.66;;;4.59;88.28
76605;BME280;73179;50.978;16.998;2023-12-20T09:38:13;99602.13;;;4.59;87.78
76605;BME280;73179;50.978;16.998;2023-12-20T09:40:41;99601.28;;;4.53;87.23
76605;BME280;73179;50.978;16.998;2023-12-20T09:43:14;99633.31;;;4.75;87.79
76605;BME280;73179;50.978;16.998;2023-12-20T09:45:42;99612.09;;;4.63;88.08
76605;BME280;73179;50.978;16.998;2023-12-20T09:48:11;99593.00;;;4.60;87.71
76605;BME280;73179;50.978;16.998;2023-12-20T09:50:38;99622.38;;;4.82;87.46
76605;BME280;73179;50.978;16.998;2023-12-20T09:53:04;99579.13;;;4.68;87.57
76605;BME280;73179;50.978;16.998;2023-12-20T09:55:36;99603.38;;;4.88;86.62
76605;BME280;73179;50.978;16.998;2023-12-20T09:58:02;99600.41;;;4.85;86.63
76605;BME280;73179;50.978;16.998;2023-12-20T10:00:28;99576.50;;;4.78;86.38
76605;BME280;73179;50.978;16.998;2023-12-20T10:02:58;99590.25;;;4.92;85.21
76605;BME280;73179;50.978;16.998;2023-12-20T10:05:31;99597.53;;;5.01;85.29
76605;BME280;73179;50.978;16.998;2023-12-20T10:07:57;99570.38;;;4.88;85.45
76605;BME280;73179;50.978;16.998;2023-12-20T10:10:24;99518.50;;;4.57;86.00
76605;BME280;73179;50.978;16.998;2023-12-20T10:13:10;99578.69;;;4.86;84.15
76605;BME280;73179;50.978;16.998;2023-12-20T10:15:37;99586.78;;;4.96;84.86
76605;BME280;73179;50.978;16.998;2023-12-20T10:18:04;99562.56;;;4.81;83.86
76605;BME280;73179;50.978;16.998;2023-12-20T10:20:31;99572.53;;;4.86;82.71
76605;BME280;73179;50.978;16.998;2023-12-20T10:22:58;99553.47;;;4.82;83.43
76605;BME280;73179;50.978;16.998;2023-12-20T10:25:25;99587.59;;;4.97;83.58
76605;BME280;73179;50.978;16.998;2023-12-20T10:28:09;99583.53;;;4.89;83.28
76605;BME280;73179;50.978;16.998;2023-12-20T10:30:37;99593.19;;;4.90;82.96
76605;BME280;73179;50.978;16.998;2023-12-20T10:33:05;99564.94;;;4.72;83.04
76605;BME280;73179;50.978;16.998;2023-12-20T10:35:34;99563.31;;;4.66;82.92
76605;BME280;73179;50.978;16.998;2023-12-20T10:38:03;99607.13;;;4.92;82.61
76605;BME280;73179;50.978;16.998;2023-12-20T10:40:30;99557.66;;;4.68;82.52
76605;BME280;73179;50.978;16.998;2023-12-20T10:42:58;99599.94;;;4.98;83.21
76605;BME280;73179;50.978;16.998;2023-12-20T10:45:25;99568.44;;;4.73;83.29
76605;BME280;73179;50.978;16.998;2023-12-20T10:47:52;99572.19;;;4.72;82.97
76605;BME280;73179;50.978;16.998;2023-12-20T10:50:19;99593.69;;;4.82;82.54
76605;BME280;73179;50.978;16.998;2023-12-20T10:52:47;99591.31;;;4.91;83.53
76605;BME280;73179;50.978;16.998;2023-12-20T10:55:14;99562.00;;;4.74;83.40
76605;BME280;73179;50.978;16.998;2023-12-20T10:57:40;99552.63;;;4.76;83.01
76605;BME280;73179;50.978;16.998;2023-12-20T11:00:13;99534.91;;;4.75;82.70
76605;BME280;73179;50.978;16.998;2023-12-20T11:02:40;99564.59;;;5.16;83.76
76605;BME280;73179;50.978;16.998;2023-12-20T11:08:05;99524.63;;;5.19;82.07
76605;BME280;73179;50.978;16.998;2023-12-20T11:13:25;99533.75;;;5.13;82.73
76605;BME280;73179;50.978;16.998;2023-12-20T11:15:54;99566.84;;;5.44;81.55
76605;BME280;73179;50.978;16.998;2023-12-20T11:18:20;99507.44;;;5.10;82.12
76605;BME280;73179;50.978;16.998;2023-12-20T11:20:46;99532.69;;;5.29;82.43
76605;BME280;73179;50.978;16.998;2023-12-20T11:23:12;99540.78;;;5.45;81.44
76605;BME280;73179;50.978;16.998;2023-12-20T11:25:52;99500.22;;;5.26;81.79
76605;BME280;73179;50.978;16.998;2023-12-20T11:28:23;99551.28;;;5.61;82.07
76605;BME280;73179;50.978;16.998;2023-12-20T11:30:51;99538.69;;;5.67;80.87
76605;BME280;73179;50.978;16.998;2023-12-20T11:33:21;99512.88;;;5.51;81.96
76605;BME280;73179;50.978;16.998;2023-12-20T11:35:48;99473.69;;;5.35;81.14
76605;BME280;73179;50.978;16.998;2023-12-20T11:38:15;99499.47;;;5.66;81.20
76605;BME280;73179;50.978;16.998;2023-12-20T11:40:42;99482.81;;;5.64;80.05
76605;BME280;73179;50.978;16.998;2023-12-20T11:43:08;99511.06;;;5.87;80.11
76605;BME280;73179;50.978;16.998;2023-12-20T11:45:35;99503.22;;;5.80;79.79
76605;BME280;73179;50.978;16.998;2023-12-20T11:48:02;99503.50;;;5.79;80.19
76605;BME280;73179;50.978;16.998;2023-12-20T11:50:29;99495.44;;;5.73;79.94
76605;BME280;73179;50.978;16.998;2023-12-20T11:52:58;99459.72;;;5.58;79.44
76605;BME280;73179;50.978;16.998;2023-12-20T11:55:24;99483.09;;;5.78;79.93
76605;BME280;73179;50.978;16.998;2023-12-20T11:57:51;99490.34;;;5.87;79.07
76605;BME280;73179;50.978;16.998;2023-12-20T12:00:17;99487.66;;;5.82;79.58
76605;BME280;73179;50.978;16.998;2023-12-20T12:02:55;99446.31;;;5.58;78.23
76605;BME280;73179;50.978;16.998;2023-12-20T12:05:22;99480.66;;;5.76;78.01
76605;BME280;73179;50.978;16.998;2023-12-20T12:07:48;99447.13;;;5.63;77.52
76605;BME280;73179;50.978;16.998;2023-12-20T12:10:14;99455.44;;;5.77;77.34
76605;BME280;73179;50.978;16.998;2023-12-20T12:12:40;99466.19;;;5.82;77.99
76605;BME280;73179;50.978;16.998;2023-12-20T12:15:07;99429.13;;;5.64;76.44
76605;BME280;73179;50.978;16.998;2023-12-20T12:17:34;99450.59;;;5.79;77.26
76605;BME280;73179;50.978;16.998;2023-12-20T12:20:05;99463.50;;;5.87;76.84
76605;BME280;73179;50.978;16.998;2023-12-20T12:22:31;99470.75;;;5.92;77.50
76605;BME280;73179;50.978;16.998;2023-12-20T12:24:59;99460.81;;;5.92;76.43
76605;BME280;73179;50.978;16.998;2023-12-20T12:27:35;99426.97;;;5.81;76.70
76605;BME280;73179;50.978;16.998;2023-12-20T12:30:34;99463.75;;;5.96;76.45
76605;BME280;73179;50.978;16.998;2023-12-20T12:33:14;99465.38;;;5.92;77.40
76605;BME280;73179;50.978;16.998;2023-12-20T12:35:50;99356.41;;;5.10;77.38
76605;BME280;73179;50.978;16.998;2023-12-20T12:38:20;99361.50;;;5.26;76.21
76605;BME280;73179;50.978;16.998;2023-12-20T12:40:47;99392.09;;;5.51;75.62
76605;BME280;73179;50.978;16.998;2023-12-20T12:43:13;99429.13;;;5.79;74.92
76605;BME280;73179;50.978;16.998;2023-12-20T12:45:39;99419.44;;;5.78;75.16
76605;BME280;73179;50.978;16.998;2023-12-20T12:48:05;99408.44;;;5.64;76.10
76605;BME280;73179;50.978;16.998;2023-12-20T12:50:32;99423.47;;;5.75;74.68
76605;BME280;73179;50.978;16.998;2023-12-20T12:52:58;99428.03;;;5.85;74.12
76605;BME280;73179;50.978;16.998;2023-12-20T12:55:24;99428.31;;;5.79;74.71
76605;BME280;73179;50.978;16.998;2023-12-20T12:57:50;99406.56;;;5.70;74.00
76605;BME280;73179;50.978;16.998;2023-12-20T13:00:17;99418.38;;;5.74;75.17
76605;BME280;73179;50.978;16.998;2023-12-20T13:02:43;99421.84;;;5.80;73.71
76605;BME280;73179;50.978;16.998;2023-12-20T13:05:09;99415.69;;;5.74;75.41
76605;BME280;73179;50.978;16.998;2023-12-20T13:07:35;99426.16;;;5.81;74.96
76605;BME280;73179;50.978;16.998;2023-12-20T13:10:01;99413.28;;;5.72;74.28
76605;BME280;73179;50.978;16.998;2023-12-20T13:12:27;99412.50;;;5.67;75.14
76605;BME280;73179;50.978;16.998;2023-12-20T13:14:54;99405.50;;;5.71;73.78
76605;BME280;73179;50.978;16.998;2023-12-20T13:17:20;99338.97;;;5.22;74.88
76605;BME280;73179;50.978;16.998;2023-12-20T13:19:46;99332.03;;;5.01;74.75
76605;BME280;73179;50.978;16.998;2023-12-20T13:22:13;99414.13;;;5.48;74.69
76605;BME280;73179;50.978;16.998;2023-12-20T13:24:39;99309.75;;;4.70;74.62
76605;BME280;73179;50.978;16.998;2023-12-20T13:27:06;99436.09;;;5.65;75.01
76605;BME280;73179;50.978;16.998;2023-12-20T13:29:32;99418.41;;;5.59;75.27
76605;BME280;73179;50.978;16.998;2023-12-20T13:32:00;99413.84;;;5.59;75.60
76605;BME280;73179;50.978;16.998;2023-12-20T13:34:27;99411.69;;;5.61;74.41
76605;BME280;73179;50.978;16.998;2023-12-20T13:36:53;99427.25;;;5.69;74.44
76605;BME280;73179;50.978;16.998;2023-12-20T13:39:19;99427.25;;;5.69;74.82